Terminal Aerodrome Forecast
Issued by NWS Cleveland, OH

Home | Current Version | Previous Version | Text Only | Print | Product List | Glossary Off
Versions: 1 2 3 4 5 6 7 8 9 10 11 12 13 14 15 16 17 18 19 20 21 22

000
FTUS41 KCLE 292245 AAA
TAFCAK
TAF AMD
KCAK 292245Z 2923/3018 14008KT 5SM BR VCSH OVC025
     FM300300 16006KT 3SM BR VCSH OVC007
     FM301700 20008KT 4SM BR OVC015=

USA.gov is the U.S. government's official web portal to all federal, state and local government web resources and services.